createdAt,value
2022-08-23T00:02:26.616Z,100294.41
2022-08-23T00:05:07.527Z,100296.41
2022-08-23T00:07:39.719Z,100302.50
2022-08-23T00:10:13.208Z,100297.63
2022-08-23T00:12:41.338Z,100300.44
2022-08-23T00:15:10.136Z,100286.59
2022-08-23T00:17:37.619Z,100296.75
2022-08-23T00:20:06.678Z,100306.06
2022-08-23T00:22:33.996Z,100295.09
2022-08-23T00:25:01.147Z,100297.53
2022-08-23T00:27:28.792Z,100296.66
2022-08-23T00:29:57.818Z,100305.19
2022-08-23T00:32:30.965Z,100303.56
2022-08-23T00:34:59.935Z,100302.31
2022-08-23T00:37:28.065Z,100307.97
2022-08-23T00:39:55.040Z,100304.34
2022-08-23T00:42:56.594Z,100305.94
2022-08-23T00:45:51.080Z,100305.50
2022-08-23T00:48:18.186Z,100303.03
2022-08-23T00:51:07.814Z,100308.34
2022-08-23T00:53:38.590Z,100309.53
2022-08-23T00:56:09.707Z,100320.88
2022-08-23T00:58:36.935Z,100314.38
2022-08-23T01:01:06.427Z,100317.66
2022-08-23T01:03:38.889Z,100318.84
2022-08-23T01:06:44.581Z,100314.38
2022-08-23T01:09:18.183Z,100326.97
2022-08-23T01:11:49.544Z,100325.69
2022-08-23T01:14:23.311Z,100328.97
2022-08-23T01:17:14.856Z,100329.34
2022-08-23T01:19:50.757Z,100328.53
2022-08-23T01:22:22.067Z,100337.44
2022-08-23T01:25:07.057Z,100335.41
2022-08-23T01:27:39.443Z,100345.94
2022-08-23T01:30:10.398Z,100344.31
2022-08-23T01:32:43.443Z,100346.72
2022-08-23T01:35:10.633Z,100342.66
2022-08-23T01:37:37.776Z,100340.22
2022-08-23T01:40:05.174Z,100344.69
2022-08-23T01:42:32.033Z,100344.25
2022-08-23T01:45:01.486Z,100350.31
2022-08-23T01:47:29.604Z,100356.38
2022-08-23T01:49:56.653Z,100352.31
2022-08-23T01:52:23.358Z,100347.44
2022-08-23T01:54:50.102Z,100353.94
2022-08-23T01:57:17.344Z,100365.28
2022-08-23T01:59:44.342Z,100356.34
2022-08-23T02:02:11.548Z,100360.41
2022-08-23T02:04:38.757Z,100366.88
2022-08-23T02:07:05.598Z,100357.91
2022-08-23T02:09:32.455Z,100361.13
2022-08-23T02:11:59.602Z,100356.25
2022-08-23T02:14:26.476Z,100364.34
2022-08-23T02:17:03.983Z,100355.44
2022-08-23T02:19:33.467Z,100369.19
2022-08-23T02:22:00.656Z,100372.38
2022-08-23T02:24:27.683Z,100365.09
2022-08-23T02:26:57.685Z,100367.94
2022-08-23T02:29:26.360Z,100373.16
2022-08-23T02:31:54.160Z,100374.28
2022-08-23T02:34:22.902Z,100373.91
2022-08-23T02:36:51.865Z,100373.03
2022-08-23T02:39:19.036Z,100375.09
2022-08-23T02:41:45.891Z,100364.59
2022-08-23T02:44:12.967Z,100374.72
2022-08-23T02:46:40.820Z,100372.72
2022-08-23T02:49:08.371Z,100377.19
2022-08-23T02:51:35.403Z,100364.22
2022-08-23T02:54:02.347Z,100379.22
2022-08-23T02:56:29.176Z,100371.53
2022-08-23T02:58:56.001Z,100373.16
2022-08-23T03:01:27.382Z,100378.06
2022-08-23T03:03:54.685Z,100386.94
2022-08-23T03:06:24.708Z,100375.69
2022-08-23T03:08:54.325Z,100382.97
2022-08-23T03:11:22.271Z,100387.03
2022-08-23T03:13:50.869Z,100392.31
2022-08-23T03:16:18.892Z,100383.00
2022-08-23T03:18:46.955Z,100381.78
2022-08-23T03:21:14.481Z,100387.03
2022-08-23T03:23:42.005Z,100392.75
2022-08-23T03:26:11.567Z,100393.56
2022-08-23T03:28:38.844Z,100396.72
2022-08-23T03:31:07.128Z,100407.31
2022-08-23T03:33:34.684Z,100399.25
2022-08-23T03:36:03.180Z,100403.72
2022-08-23T03:38:30.051Z,100407.38
2022-08-23T03:40:57.192Z,100414.66
2022-08-23T03:43:24.512Z,100417.47
2022-08-23T03:45:53.826Z,100411.38
2022-08-23T03:48:20.630Z,100417.88
2022-08-23T03:50:47.387Z,100415.44
2022-08-23T03:53:15.102Z,100423.59
2022-08-23T03:55:43.383Z,100425.25
2022-08-23T03:58:11.499Z,100415.13
2022-08-23T04:00:38.650Z,100415.94
2022-08-23T04:03:05.600Z,100431.78
2022-08-23T04:05:32.360Z,100426.13
2022-08-23T04:07:59.507Z,100419.28
2022-08-23T04:10:26.740Z,100434.75
2022-08-23T04:12:55.165Z,100437.63
2022-08-23T04:15:22.826Z,100430.38
2022-08-23T04:17:49.724Z,100440.94
2022-08-23T04:20:17.939Z,100441.78
2022-08-23T04:22:46.084Z,100438.53
2022-08-23T04:25:33.539Z,100439.38
2022-08-23T04:28:03.155Z,100445.88
2022-08-23T04:30:30.559Z,100443.91
2022-08-23T04:32:57.481Z,100435.44
2022-08-23T04:35:26.213Z,100446.44
2022-08-23T04:37:53.689Z,100444.44
2022-08-23T04:40:39.343Z,100443.66
2022-08-23T04:43:08.846Z,100440.06
2022-08-23T04:45:39.117Z,100455.03
2022-08-23T04:48:11.994Z,100442.91
2022-08-23T04:50:42.632Z,100447.38
2022-08-23T04:53:09.950Z,100445.78
2022-08-23T04:55:36.932Z,100448.66
2022-08-23T04:58:07.622Z,100448.28
2022-08-23T05:00:34.910Z,100438.13
2022-08-23T05:03:02.169Z,100453.59
2022-08-23T05:05:28.985Z,100443.47
2022-08-23T05:07:55.850Z,100448.38
2022-08-23T05:10:23.060Z,100450.84
2022-08-23T05:12:50.154Z,100446.81
2022-08-23T05:15:17.128Z,100454.53
2022-08-23T05:17:44.340Z,100453.72
2022-08-23T05:20:11.309Z,100452.09
2022-08-23T05:22:41.239Z,100456.22
2022-08-23T05:25:09.078Z,100460.28
2022-08-23T05:27:36.186Z,100459.47
2022-08-23T05:30:04.525Z,100459.88
2022-08-23T05:32:33.846Z,100458.69
2022-08-23T05:35:00.973Z,100456.69
2022-08-23T05:37:28.756Z,100464.06
2022-08-23T05:39:55.519Z,100464.84
2022-08-23T05:42:30.206Z,100456.31
2022-08-23T05:44:57.323Z,100458.34
2022-08-23T05:47:27.172Z,100462.00
2022-08-23T05:49:54.163Z,100461.19
2022-08-23T05:52:20.910Z,100460.28
2022-08-23T05:54:47.764Z,100461.81
2022-08-23T05:57:14.689Z,100466.28
2022-08-23T05:59:42.039Z,100467.91
2022-08-23T06:02:09.579Z,100469.41
2022-08-23T06:04:36.406Z,100471.22
2022-08-23T06:07:03.955Z,100469.56
2022-08-23T06:09:30.793Z,100477.56
2022-08-23T06:11:58.927Z,100476.56
2022-08-23T06:14:25.803Z,100482.66
2022-08-23T06:16:56.097Z,100477.84
2022-08-23T06:19:23.901Z,100482.88
2022-08-23T06:21:52.155Z,100479.19
2022-08-23T06:24:19.999Z,100494.03
2022-08-23T06:26:47.020Z,100482.09
2022-08-23T06:29:17.682Z,100483.72
2022-08-23T06:31:49.074Z,100487.88
2022-08-23T06:34:32.423Z,100481.31
2022-08-23T06:37:04.795Z,100492.75
2022-08-23T06:39:37.253Z,100480.38
2022-08-23T06:42:38.249Z,100493.06
2022-08-23T06:45:03.142Z,100493.75
2022-08-23T06:47:30.508Z,100496.91
2022-08-23T06:49:58.665Z,100497.63
2022-08-23T06:52:27.766Z,100488.47
2022-08-23T06:54:54.702Z,100492.78
2022-08-23T06:57:21.697Z,100492.56
2022-08-23T06:59:52.047Z,100497.09
2022-08-23T07:02:19.121Z,100496.69
2022-08-23T07:04:46.036Z,100494.72
2022-08-23T07:07:12.812Z,100488.44
2022-08-23T07:09:40.877Z,100488.44
2022-08-23T07:12:07.922Z,100494.72
2022-08-23T07:14:36.752Z,100498.09
2022-08-23T07:17:03.969Z,100493.63
2022-08-23T07:19:34.014Z,100495.00
2022-08-23T07:22:02.542Z,100497.75
2022-08-23T07:24:33.614Z,100499.38
2022-08-23T07:27:06.788Z,100505.69
2022-08-23T07:29:35.419Z,100496.00
2022-08-23T07:32:02.315Z,100493.25
2022-08-23T07:34:29.229Z,100502.00
2022-08-23T07:36:56.322Z,100509.03
2022-08-23T07:39:24.515Z,100498.28
2022-08-23T07:41:52.817Z,100492.25
2022-08-23T07:44:20.366Z,100500.28
2022-08-23T07:46:54.557Z,100502.50
2022-08-23T07:49:21.878Z,100504.94
2022-08-23T07:51:51.104Z,100511.88
2022-08-23T07:54:20.239Z,100504.09
2022-08-23T07:56:47.225Z,100504.06
2022-08-23T07:59:14.399Z,100506.94
2022-08-23T08:01:43.628Z,100509.13
2022-08-23T08:04:12.474Z,100509.81
2022-08-23T08:07:10.384Z,100506.53
2022-08-23T08:09:37.601Z,100503.69
2022-08-23T08:12:04.800Z,100500.47
2022-08-23T08:14:31.642Z,100503.38
2022-08-23T08:17:00.570Z,100508.78
2022-08-23T08:19:27.405Z,100500.59
2022-08-23T08:21:54.177Z,100504.59
2022-08-23T08:24:21.180Z,100494.59
2022-08-23T08:26:50.410Z,100502.16
2022-08-23T08:29:17.311Z,100488.38
2022-08-23T08:31:45.845Z,100502.16
2022-08-23T08:34:13.536Z,100492.13
2022-08-23T08:36:49.565Z,100495.88
2022-08-23T08:39:20.262Z,100494.19
2022-08-23T08:42:18.226Z,100498.72
2022-08-23T08:44:57.265Z,100501.88
2022-08-23T08:47:51.270Z,100506.84
2022-08-23T08:50:27.356Z,100499.00
2022-08-23T08:53:10.268Z,100499.97
2022-08-23T08:55:41.938Z,100499.00
2022-08-23T08:58:17.259Z,100499.06
2022-08-23T09:00:44.204Z,100511.88
2022-08-23T09:03:14.475Z,100502.94
2022-08-23T09:05:54.165Z,100504.06
2022-08-23T09:08:23.845Z,100495.84
2022-08-23T09:11:04.070Z,100491.28
2022-08-23T09:13:45.914Z,100495.00
2022-08-23T09:16:29.434Z,100497.94
2022-08-23T09:18:56.383Z,100495.38
2022-08-23T09:21:23.353Z,100494.78
2022-08-23T09:24:00.950Z,100502.56
2022-08-23T09:26:31.008Z,100502.31
2022-08-23T09:29:24.646Z,100493.50
2022-08-23T09:32:06.799Z,100489.59
2022-08-23T09:34:35.996Z,100489.22
2022-08-23T09:37:09.869Z,100481.84
2022-08-23T09:39:39.333Z,100484.78
2022-08-23T09:42:27.250Z,100485.13
2022-08-23T09:44:54.716Z,100472.34
2022-08-23T09:47:32.261Z,100485.44
2022-08-23T09:50:07.854Z,100466.59
2022-08-23T09:52:38.670Z,100473.75
2022-08-23T09:55:11.492Z,100482.91
2022-08-23T09:57:38.655Z,100477.00
2022-08-23T10:00:17.867Z,100471.38
2022-08-23T10:02:44.924Z,100469.03
2022-08-23T10:05:11.927Z,100471.09
2022-08-23T10:08:00.662Z,100467.06
2022-08-23T10:10:36.816Z,100470.84
2022-08-23T10:13:05.334Z,100482.81
2022-08-23T10:16:04.811Z,100476.19
2022-08-23T10:18:53.189Z,100465.06
2022-08-23T10:21:38.393Z,100479.88
2022-08-23T10:24:46.861Z,100462.75
2022-08-23T10:27:38.370Z,100464.56
2022-08-23T10:30:13.389Z,100473.50
2022-08-23T10:32:50.729Z,100466.16
2022-08-23T10:35:36.432Z,100469.13
2022-08-23T10:38:41.258Z,100468.03
2022-08-23T10:41:55.823Z,100467.84
2022-08-23T10:44:35.678Z,100471.94
2022-08-23T10:47:41.800Z,100456.50
2022-08-23T10:50:13.166Z,100462.81
2022-08-23T10:52:57.391Z,100468.28
2022-08-23T10:55:39.325Z,100475.34
2022-08-23T10:58:12.146Z,100476.22
2022-08-23T11:00:41.183Z,100469.75
2022-08-23T11:03:13.842Z,100461.72
2022-08-23T11:05:43.356Z,100461.00
2022-08-23T11:08:30.109Z,100458.19
2022-08-23T11:10:57.192Z,100457.81
2022-08-23T11:13:35.123Z,100451.97
2022-08-23T11:16:15.543Z,100457.03
2022-08-23T11:18:46.536Z,100463.06
2022-08-23T11:21:19.486Z,100457.88
2022-08-23T11:23:49.313Z,100472.31
2022-08-23T11:26:22.553Z,100471.06
2022-08-23T11:28:52.275Z,100471.38
2022-08-23T11:31:24.234Z,100477.75
2022-08-23T11:34:19.879Z,100457.47
2022-08-23T11:37:23.380Z,100456.34
2022-08-23T11:39:56.464Z,100454.50
2022-08-23T11:42:29.765Z,100463.03
2022-08-23T11:44:56.858Z,100453.53
2022-08-23T11:48:06.224Z,100460.81
2022-08-23T11:50:57.508Z,100450.91
2022-08-23T11:53:49.432Z,100463.09
2022-08-23T11:56:45.650Z,100447.09
2022-08-23T11:59:19.178Z,100446.84
2022-08-23T12:01:48.798Z,100455.16
2022-08-23T12:04:37.606Z,100458.50
2022-08-23T12:07:12.565Z,100459.25
2022-08-23T12:09:42.145Z,100468.94
2022-08-23T12:12:24.819Z,100460.66
2022-08-23T12:14:58.732Z,100450.75
2022-08-23T12:17:29.775Z,100456.50
2022-08-23T12:20:16.367Z,100466.31
2022-08-23T12:23:11.724Z,100451.59
2022-08-23T12:25:38.724Z,100449.69
2022-08-23T12:28:33.341Z,100454.91
2022-08-23T12:31:29.315Z,100456.00
2022-08-23T12:34:17.543Z,100453.00
2022-08-23T12:36:48.331Z,100448.66
2022-08-23T12:39:41.395Z,100455.81
2022-08-23T12:42:19.969Z,100451.16
2022-08-23T12:45:00.584Z,100447.50
2022-08-23T12:47:27.726Z,100447.97
2022-08-23T12:50:04.248Z,100440.38
2022-08-23T12:52:33.715Z,100445.88
2022-08-23T12:55:01.147Z,100435.28
2022-08-23T12:57:37.349Z,100446.34
2022-08-23T13:00:21.717Z,100444.63
2022-08-23T13:03:00.210Z,100436.63
2022-08-23T13:05:31.885Z,100438.47
2022-08-23T13:08:01.926Z,100437.78
2022-08-23T13:10:29.029Z,100434.16
2022-08-23T13:12:56.137Z,100427.63
2022-08-23T13:15:46.286Z,100440.06
2022-08-23T13:18:29.272Z,100440.50
2022-08-23T13:21:24.086Z,100435.66
2022-08-23T13:23:53.140Z,100440.38
2022-08-23T13:26:37.243Z,100436.72
2022-08-23T13:29:21.034Z,100435.94
2022-08-23T13:32:03.386Z,100439.28
2022-08-23T13:34:38.972Z,100432.72
2022-08-23T13:37:24.934Z,100428.56
2022-08-23T13:39:58.164Z,100429.84
2022-08-23T13:42:43.099Z,100428.09
2022-08-23T13:45:20.154Z,100434.22
2022-08-23T13:47:49.887Z,100426.75
2022-08-23T13:50:23.870Z,100432.44
2022-08-23T13:53:13.289Z,100417.69
2022-08-23T13:55:58.873Z,100414.47
2022-08-23T13:58:31.737Z,100411.91
2022-08-23T14:01:00.633Z,100407.66
2022-08-23T14:03:29.269Z,100409.41
2022-08-23T14:05:56.088Z,100417.69
2022-08-23T14:08:23.757Z,100409.94
2022-08-23T14:10:50.987Z,100420.03
2022-08-23T14:13:19.954Z,100413.31
2022-08-23T14:18:34.842Z,100420.97
2022-08-23T14:21:03.765Z,100412.31
2022-08-23T14:23:30.593Z,100420.59
2022-08-23T14:25:59.320Z,100413.22
2022-08-23T14:28:30.304Z,100411.16
2022-08-23T14:30:57.800Z,100413.22
2022-08-23T14:33:25.413Z,100412.41
2022-08-23T14:35:52.555Z,100418.63
2022-08-23T14:38:19.644Z,100415.84
2022-08-23T14:41:03.203Z,100412.75
2022-08-23T14:43:30.608Z,100412.97
2022-08-23T14:45:58.205Z,100411.91
2022-08-23T14:48:28.271Z,100417.47
2022-08-23T14:50:55.974Z,100412.72
2022-08-23T14:53:29.339Z,100416.16
2022-08-23T14:56:18.857Z,100418.03
2022-08-23T14:58:44.635Z,100407.91
2022-08-23T15:01:13.146Z,100408.91
2022-08-23T15:03:44.241Z,100411.88
2022-08-23T15:06:13.331Z,100407.81
2022-08-23T15:08:40.107Z,100408.25
2022-08-23T15:14:13.951Z,100402.16
2022-08-23T15:16:41.193Z,100399.28
2022-08-23T15:19:58.607Z,100402.06
2022-08-23T15:22:26.079Z,100410.03
2022-08-23T15:24:53.077Z,100403.47
2022-08-23T15:27:21.683Z,100406.81
2022-08-23T15:29:48.452Z,100405.72
2022-08-23T15:32:22.532Z,100410.66
2022-08-23T15:34:50.538Z,100406.25
2022-08-23T15:37:20.651Z,100406.25
2022-08-23T15:39:54.849Z,100412.44
2022-08-23T15:42:21.634Z,100411.31
2022-08-23T15:44:49.861Z,100408.09
2022-08-23T15:47:27.907Z,100400.81
2022-08-23T15:49:55.876Z,100408.31
2022-08-23T15:52:26.963Z,100405.81
2022-08-23T15:54:54.492Z,100409.59
2022-08-23T15:57:28.250Z,100406.78
2022-08-23T15:59:57.341Z,100406.84
2022-08-23T16:02:24.413Z,100409.66
2022-08-23T16:04:51.188Z,100410.84
2022-08-23T16:07:18.448Z,100409.22
2022-08-23T16:09:45.527Z,100410.94
2022-08-23T16:12:12.297Z,100411.38
2022-08-23T16:14:39.198Z,100412.59
2022-08-23T16:17:07.360Z,100415.19
2022-08-23T16:19:34.130Z,100423.41
2022-08-23T16:22:01.127Z,100416.94
2022-08-23T16:24:28.091Z,100418.25
2022-08-23T16:26:56.131Z,100426.47
2022-08-23T16:29:22.940Z,100419.13
2022-08-23T16:31:50.577Z,100425.31
2022-08-23T16:34:19.250Z,100432.28
2022-08-23T16:36:50.585Z,100424.19
2022-08-23T16:39:18.133Z,100429.16
2022-08-23T16:41:45.056Z,100430.56
2022-08-23T16:44:12.190Z,100443.28
2022-08-23T16:46:44.058Z,100435.97
2022-08-23T16:49:15.895Z,100436.84
2022-08-23T16:51:43.658Z,100449.28
2022-08-23T16:54:10.772Z,100450.16
2022-08-23T16:56:40.116Z,100453.91
2022-08-23T16:59:09.565Z,100460.06
2022-08-23T17:01:50.063Z,100456.38
2022-08-23T17:04:18.720Z,100462.59
2022-08-23T17:06:46.360Z,100468.41
2022-08-23T17:09:14.736Z,100470.47
2022-08-23T17:11:43.275Z,100470.13
2022-08-23T17:14:10.945Z,100466.94
2022-08-23T17:16:37.747Z,100473.47
2022-08-23T17:19:04.540Z,100487.84
2022-08-23T17:21:31.701Z,100471.16
2022-08-23T17:23:58.512Z,100478.56
2022-08-23T17:26:25.539Z,100474.13
2022-08-23T17:28:52.573Z,100471.34
2022-08-23T17:31:20.289Z,100472.22
2022-08-23T17:33:47.405Z,100486.97
2022-08-23T17:36:46.188Z,100490.31
2022-08-23T17:39:18.722Z,100495.28
2022-08-23T17:41:46.015Z,100485.91
2022-08-23T17:44:15.744Z,100481.50
2022-08-23T17:46:45.014Z,100490.91
2022-08-23T17:49:12.201Z,100479.28
2022-08-23T17:51:41.358Z,100485.84
2022-08-23T17:54:10.280Z,100482.97
2022-08-23T17:56:38.056Z,100480.97
2022-08-23T17:59:09.851Z,100489.16
2022-08-23T18:01:37.189Z,100491.81
2022-08-23T18:04:06.051Z,100488.50
2022-08-23T18:06:34.069Z,100479.16
2022-08-23T18:09:02.930Z,100494.25
2022-08-23T18:11:30.644Z,100495.53
2022-08-23T18:13:57.835Z,100490.31
2022-08-23T18:16:34.464Z,100486.19
2022-08-23T18:19:02.828Z,100490.34
2022-08-23T18:21:30.747Z,100490.38
2022-08-23T18:23:59.090Z,100488.75
2022-08-23T18:26:45.402Z,100496.94
2022-08-23T18:29:14.586Z,100498.28
2022-08-23T18:31:43.950Z,100493.78
2022-08-23T18:34:12.603Z,100484.41
2022-08-23T18:36:39.888Z,100493.84
2022-08-23T18:39:08.221Z,100494.72
2022-08-23T18:41:35.275Z,100484.13
2022-08-23T18:44:05.373Z,100479.66
2022-08-23T18:46:40.973Z,100485.78
2022-08-23T18:49:09.456Z,100490.78
2022-08-23T18:51:36.828Z,100491.63
2022-08-23T18:54:04.052Z,100496.09
2022-08-23T18:56:30.789Z,100485.50
2022-08-23T18:58:57.852Z,100496.56
2022-08-23T19:01:34.996Z,100488.41
2022-08-23T19:04:05.010Z,100488.06
2022-08-23T19:06:32.063Z,100495.88
2022-08-23T19:09:01.038Z,100492.22
2022-08-23T19:11:29.644Z,100501.63
2022-08-23T19:13:59.943Z,100504.97
2022-08-23T19:16:27.043Z,100506.66
2022-08-23T19:18:56.907Z,100500.94
2022-08-23T19:21:26.634Z,100506.69
2022-08-23T19:23:58.922Z,100504.66
2022-08-23T19:26:34.457Z,100507.53
2022-08-23T19:29:04.433Z,100506.72
2022-08-23T19:31:36.051Z,100503.06
2022-08-23T19:34:04.268Z,100504.72
2022-08-23T19:36:45.909Z,100508.38
2022-08-23T19:39:14.595Z,100517.78
2022-08-23T19:41:42.082Z,100511.28
2022-08-23T19:44:09.327Z,100520.69
2022-08-23T19:46:41.868Z,100519.09
2022-08-23T19:49:10.900Z,100519.94
2022-08-23T19:51:39.077Z,100524.41
2022-08-23T19:54:11.164Z,100528.94
2022-08-23T19:56:49.087Z,100524.84
2022-08-23T19:59:23.741Z,100519.97
2022-08-23T20:01:53.131Z,100522.88
2022-08-23T20:04:20.538Z,100524.22
2022-08-23T20:06:48.821Z,100534.81
2022-08-23T20:09:16.471Z,100531.94
2022-08-23T20:11:43.728Z,100532.38
2022-08-23T20:14:11.115Z,100538.50
2022-08-23T20:16:41.489Z,100530.34
2022-08-23T20:19:10.436Z,100532.81
2022-08-23T20:21:38.649Z,100531.59
2022-08-23T20:24:06.417Z,100538.94
2022-08-23T20:26:38.828Z,100540.97
2022-08-23T20:29:05.705Z,100543.06
2022-08-23T20:31:36.167Z,100545.50
2022-08-23T20:34:05.050Z,100543.91
2022-08-23T20:36:33.513Z,100548.00
2022-08-23T20:39:01.710Z,100551.25
2022-08-23T20:41:32.895Z,100550.06
2022-08-23T20:44:00.634Z,100546.44
2022-08-23T20:46:27.643Z,100552.97
2022-08-23T20:48:57.738Z,100557.84
2022-08-23T20:51:25.822Z,100541.19
2022-08-23T20:53:53.130Z,100557.88
2022-08-23T20:56:23.565Z,100548.53
2022-08-23T20:58:50.933Z,100555.88
2022-08-23T21:01:18.446Z,100553.84
2022-08-23T21:03:45.867Z,100555.50
2022-08-23T21:06:20.166Z,100553.06
2022-08-23T21:08:53.468Z,100555.50
2022-08-23T21:11:22.112Z,100555.06
2022-08-23T21:13:51.043Z,100558.34
2022-08-23T21:16:21.610Z,100555.50
2022-08-23T21:18:49.008Z,100550.19
2022-08-23T21:21:20.997Z,100554.28
2022-08-23T21:23:49.934Z,100551.03
2022-08-23T21:26:17.483Z,100558.75
2022-08-23T21:28:46.571Z,100554.69
2022-08-23T21:31:17.019Z,100554.69
2022-08-23T21:33:44.798Z,100561.59
2022-08-23T21:36:13.452Z,100558.75
2022-08-23T21:38:40.972Z,100563.25
2022-08-23T21:41:11.375Z,100557.13
2022-08-23T21:43:39.351Z,100565.28
2022-08-23T21:46:09.056Z,100566.09
2022-08-23T21:48:35.995Z,100556.31
2022-08-23T21:51:02.871Z,100568.13
2022-08-23T21:53:31.035Z,100559.56
2022-08-23T21:55:58.524Z,100570.16
2022-08-23T21:58:25.324Z,100564.47
2022-08-23T22:00:52.236Z,100571.00
2022-08-23T22:03:21.693Z,100575.03
2022-08-23T22:05:48.323Z,100571.41
2022-08-23T22:08:17.036Z,100575.88
2022-08-23T22:10:53.733Z,100566.53
2022-08-23T22:13:26.167Z,100563.22
2022-08-23T22:15:53.073Z,100580.34
2022-08-23T22:18:19.936Z,100569.75
2022-08-23T22:20:46.987Z,100576.69
2022-08-23T22:23:13.710Z,100579.94
2022-08-23T22:25:40.574Z,100586.44
2022-08-23T22:28:08.196Z,100585.66
2022-08-23T22:30:35.434Z,100579.94
2022-08-23T22:33:03.336Z,100582.81
2022-08-23T22:35:34.305Z,100583.19
2022-08-23T22:38:13.866Z,100584.84
2022-08-23T22:40:51.176Z,100582.38
2022-08-23T22:43:19.748Z,100584.03
2022-08-23T22:45:56.317Z,100571.00
2022-08-23T22:48:24.464Z,100588.50
2022-08-23T22:50:51.997Z,100585.66
2022-08-23T22:53:19.849Z,100582.41
2022-08-23T22:55:51.031Z,100591.34
2022-08-23T22:58:18.264Z,100583.25
2022-08-23T23:00:45.538Z,100584.44
2022-08-23T23:03:12.452Z,100589.75
2022-08-23T23:05:39.977Z,100588.94
2022-08-23T23:08:29.681Z,100592.19
2022-08-23T23:10:59.322Z,100584.47
2022-08-23T23:13:28.182Z,100586.50
2022-08-23T23:15:55.695Z,100588.13
2022-08-23T23:18:23.538Z,100592.22
2022-08-23T23:20:51.774Z,100592.22
2022-08-23T23:23:22.671Z,100597.91
2022-08-23T23:25:50.988Z,100597.09
2022-08-23T23:28:20.201Z,100595.06
2022-08-23T23:30:50.599Z,100605.25
2022-08-23T23:33:18.968Z,100598.75
2022-08-23T23:35:45.720Z,100610.94
2022-08-23T23:38:12.915Z,100601.19
2022-08-23T23:40:43.760Z,100602.81
2022-08-23T23:43:13.420Z,100601.97
2022-08-23T23:45:41.061Z,100607.66
2022-08-23T23:48:08.819Z,100604.38
2022-08-23T23:50:37.034Z,100604.41
2022-08-23T23:53:08.557Z,100607.63
2022-08-23T23:55:38.061Z,100619.81
2022-08-23T23:58:04.955Z,100610.06
